sensor_id;sensor_type;location;lat;lon;timestamp;temperature;humidity
72576;DHT22;60613;48.658;2.328;2023-03-17T07:02:39;20.70;35.60
72576;DHT22;60613;48.658;2.328;2023-03-17T07:05:05;20.70;36.60
72576;DHT22;60613;48.658;2.328;2023-03-17T07:07:31;20.80;36.40
72576;DHT22;60613;48.658;2.328;2023-03-17T07:09:56;20.80;36.40
72576;DHT22;60613;48.658;2.328;2023-03-17T07:12:22;20.80;36.20
72576;DHT22;60613;48.658;2.328;2023-03-17T07:14:48;20.90;36.10
72576;DHT22;60613;48.658;2.328;2023-03-17T07:17:14;20.90;36.00
72576;DHT22;60613;48.658;2.328;2023-03-17T07:19:41;20.90;36.00
72576;DHT22;60613;48.658;2.328;2023-03-17T07:22:08;20.90;35.90
72576;DHT22;60613;48.658;2.328;2023-03-17T07:24:34;21.00;35.90
72576;DHT22;60613;48.658;2.328;2023-03-17T07:26:59;21.00;35.90
72576;DHT22;60613;48.658;2.328;2023-03-17T07:29:25;21.00;35.80
72576;DHT22;60613;48.658;2.328;2023-03-17T07:31:51;21.00;35.80
72576;DHT22;60613;48.658;2.328;2023-03-17T07:34:18;21.10;35.70
72576;DHT22;60613;48.658;2.328;2023-03-17T07:36:44;21.10;35.70
72576;DHT22;60613;48.658;2.328;2023-03-17T07:39:10;21.10;35.90
72576;DHT22;60613;48.658;2.328;2023-03-17T07:41:35;21.20;35.70
72576;DHT22;60613;48.658;2.328;2023-03-17T07:44:01;21.20;35.20
72576;DHT22;60613;48.658;2.328;2023-03-17T07:46:28;21.10;35.20
72576;DHT22;60613;48.658;2.328;2023-03-17T07:48:54;21.10;33.80
72576;DHT22;60613;48.658;2.328;2023-03-17T07:51:21;21.00;33.30
72576;DHT22;60613;48.658;2.328;2023-03-17T07:53:48;20.90;32.40
72576;DHT22;60613;48.658;2.328;2023-03-17T07:56:15;20.80;32.50
72576;DHT22;60613;48.658;2.328;2023-03-17T07:58:41;20.70;32.60
72576;DHT22;60613;48.658;2.328;2023-03-17T08:01:07;20.60;32.60
72576;DHT22;60613;48.658;2.328;2023-03-17T08:03:34;20.60;32.90
72576;DHT22;60613;48.658;2.328;2023-03-17T08:06:02;20.60;32.90
72576;DHT22;60613;48.658;2.328;2023-03-17T08:08:28;20.60;33.00
72576;DHT22;60613;48.658;2.328;2023-03-17T08:11:00;20.60;32.90
72576;DHT22;60613;48.658;2.328;2023-03-17T08:13:28;20.60;33.20
72576;DHT22;60613;48.658;2.328;2023-03-17T08:15:54;20.70;33.00
72576;DHT22;60613;48.658;2.328;2023-03-17T08:18:19;20.60;32.70
72576;DHT22;60613;48.658;2.328;2023-03-17T08:20:45;20.60;32.60
72576;DHT22;60613;48.658;2.328;2023-03-17T08:23:10;20.60;32.80
72576;DHT22;60613;48.658;2.328;2023-03-17T08:25:36;20.60;32.80
72576;DHT22;60613;48.658;2.328;2023-03-17T08:28:02;20.60;33.00
72576;DHT22;60613;48.658;2.328;2023-03-17T08:30:28;20.70;33.60
72576;DHT22;60613;48.658;2.328;2023-03-17T08:32:53;20.80;33.80
72576;DHT22;60613;48.658;2.328;2023-03-17T08:35:19;20.70;33.50
72576;DHT22;60613;48.658;2.328;2023-03-17T08:37:45;20.80;33.30
72576;DHT22;60613;48.658;2.328;2023-03-17T08:40:14;20.80;33.10
72576;DHT22;60613;48.658;2.328;2023-03-17T08:42:45;20.80;33.20
72576;DHT22;60613;48.658;2.328;2023-03-17T08:45:13;20.80;33.20
72576;DHT22;60613;48.658;2.328;2023-03-17T08:47:39;21.00;34.80
72576;DHT22;60613;48.658;2.328;2023-03-17T08:50:08;21.20;35.10
72576;DHT22;60613;48.658;2.328;2023-03-17T08:52:35;21.10;33.20
72576;DHT22;60613;48.658;2.328;2023-03-17T08:55:01;20.80;31.90
72576;DHT22;60613;48.658;2.328;2023-03-17T08:57:26;20.50;32.50
72576;DHT22;60613;48.658;2.328;2023-03-17T08:59:52;20.50;35.30
72576;DHT22;60613;48.658;2.328;2023-03-17T09:02:18;20.60;34.60
72576;DHT22;60613;48.658;2.328;2023-03-17T09:04:44;20.70;34.20
72576;DHT22;60613;48.658;2.328;2023-03-17T09:07:11;20.70;34.20
72576;DHT22;60613;48.658;2.328;2023-03-17T09:09:37;20.80;34.00
72576;DHT22;60613;48.658;2.328;2023-03-17T09:12:04;20.90;34.90
72576;DHT22;60613;48.658;2.328;2023-03-17T09:14:31;21.10;35.90
72576;DHT22;60613;48.658;2.328;2023-03-17T09:16:57;21.20;36.00
72576;DHT22;60613;48.658;2.328;2023-03-17T09:19:23;21.30;36.60
72576;DHT22;60613;48.658;2.328;2023-03-17T09:21:49;21.50;36.30
72576;DHT22;60613;48.658;2.328;2023-03-17T09:24:15;21.60;36.20
72576;DHT22;60613;48.658;2.328;2023-03-17T09:26:41;21.70;36.00
72576;DHT22;60613;48.658;2.328;2023-03-17T09:29:07;21.80;35.70
72576;DHT22;60613;48.658;2.328;2023-03-17T09:31:33;21.80;35.50
72576;DHT22;60613;48.658;2.328;2023-03-17T09:34:01;21.90;35.50
72576;DHT22;60613;48.658;2.328;2023-03-17T09:36:28;22.00;35.40
72576;DHT22;60613;48.658;2.328;2023-03-17T09:38:54;22.00;35.60
72576;DHT22;60613;48.658;2.328;2023-03-17T09:49:20;22.10;35.30
72576;DHT22;60613;48.658;2.328;2023-03-17T09:51:49;22.10;35.20
72576;DHT22;60613;48.658;2.328;2023-03-17T09:54:33;22.10;35.40
72576;DHT22;60613;48.658;2.328;2023-03-17T09:57:11;22.10;36.00
72576;DHT22;60613;48.658;2.328;2023-03-17T09:59:45;22.00;36.50
72576;DHT22;60613;48.658;2.328;2023-03-17T10:02:21;22.10;36.40
72576;DHT22;60613;48.658;2.328;2023-03-17T10:04:47;22.10;36.50
72576;DHT22;60613;48.658;2.328;2023-03-17T10:07:15;22.00;36.30
72576;DHT22;60613;48.658;2.328;2023-03-17T10:10:03;22.00;36.70
72576;DHT22;60613;48.658;2.328;2023-03-17T10:15:23;22.10;37.70
72576;DHT22;60613;48.658;2.328;2023-03-17T10:17:51;22.10;38.10
72576;DHT22;60613;48.658;2.328;2023-03-17T10:20:29;22.10;37.60
72576;DHT22;60613;48.658;2.328;2023-03-17T10:23:00;22.20;37.80
72576;DHT22;60613;48.658;2.328;2023-03-17T10:25:29;22.20;37.50
72576;DHT22;60613;48.658;2.328;2023-03-17T10:28:06;22.20;37.50
72576;DHT22;60613;48.658;2.328;2023-03-17T10:30:33;22.10;37.00
72576;DHT22;60613;48.658;2.328;2023-03-17T10:33:02;22.10;37.20
72576;DHT22;60613;48.658;2.328;2023-03-17T10:35:29;22.20;36.80
72576;DHT22;60613;48.658;2.328;2023-03-17T10:38:00;22.20;36.50
72576;DHT22;60613;48.658;2.328;2023-03-17T10:40:28;22.20;36.50
72576;DHT22;60613;48.658;2.328;2023-03-17T10:43:06;22.20;36.80
72576;DHT22;60613;48.658;2.328;2023-03-17T10:45:37;22.20;36.70
72576;DHT22;60613;48.658;2.328;2023-03-17T10:48:07;22.20;37.30
72576;DHT22;60613;48.658;2.328;2023-03-17T10:50:36;22.20;36.70
72576;DHT22;60613;48.658;2.328;2023-03-17T10:55:32;22.10;37.50
72576;DHT22;60613;48.658;2.328;2023-03-17T11:00:34;22.20;36.70
72576;DHT22;60613;48.658;2.328;2023-03-17T11:03:17;22.10;36.80
72576;DHT22;60613;48.658;2.328;2023-03-17T11:08:34;22.10;36.90
72576;DHT22;60613;48.658;2.328;2023-03-17T11:11:05;22.20;36.60
72576;DHT22;60613;48.658;2.328;2023-03-17T11:13:30;22.20;37.80
72576;DHT22;60613;48.658;2.328;2023-03-17T11:16:39;22.30;36.90
72576;DHT22;60613;48.658;2.328;2023-03-17T11:18:59;22.30;36.50
72576;DHT22;60613;48.658;2.328;2023-03-17T11:21:28;22.30;36.60
72576;DHT22;60613;48.658;2.328;2023-03-17T11:24:15;22.30;36.70
72576;DHT22;60613;48.658;2.328;2023-03-17T11:29:39;22.30;36.70
72576;DHT22;60613;48.658;2.328;2023-03-17T11:43:06;22.40;37.10
72576;DHT22;60613;48.658;2.328;2023-03-17T11:51:10;22.40;36.90
72576;DHT22;60613;48.658;2.328;2023-03-17T11:56:20;22.30;38.30
72576;DHT22;60613;48.658;2.328;2023-03-17T11:58:57;22.30;38.30
72576;DHT22;60613;48.658;2.328;2023-03-17T12:01:28;22.20;38.80
72576;DHT22;60613;48.658;2.328;2023-03-17T12:04:08;22.20;37.30
72576;DHT22;60613;48.658;2.328;2023-03-17T12:06:41;22.20;38.00
72576;DHT22;60613;48.658;2.328;2023-03-17T12:11:58;22.10;39.30
72576;DHT22;60613;48.658;2.328;2023-03-17T12:14:32;22.10;39.90
72576;DHT22;60613;48.658;2.328;2023-03-17T12:17:26;22.10;39.50
72576;DHT22;60613;48.658;2.328;2023-03-17T12:22:47;22.10;39.40
72576;DHT22;60613;48.658;2.328;2023-03-17T12:25:22;22.10;40.10
72576;DHT22;60613;48.658;2.328;2023-03-17T12:28:12;22.10;40.20
72576;DHT22;60613;48.658;2.328;2023-03-17T12:31:08;22.10;40.90
72576;DHT22;60613;48.658;2.328;2023-03-17T12:33:42;22.10;40.90
72576;DHT22;60613;48.658;2.328;2023-03-17T12:36:12;22.10;40.40
72576;DHT22;60613;48.658;2.328;2023-03-17T12:38:57;22.10;39.60
72576;DHT22;60613;48.658;2.328;2023-03-17T12:52:15;22.10;40.90
72576;DHT22;60613;48.658;2.328;2023-03-17T12:54:48;22.00;40.30
72576;DHT22;60613;48.658;2.328;2023-03-17T12:57:21;22.10;40.30
72576;DHT22;60613;48.658;2.328;2023-03-17T13:00:05;22.10;39.80
72576;DHT22;60613;48.658;2.328;2023-03-17T13:02:36;22.10;40.00
72576;DHT22;60613;48.658;2.328;2023-03-17T13:05:07;22.10;39.60
72576;DHT22;60613;48.658;2.328;2023-03-17T13:07:52;22.10;39.40
72576;DHT22;60613;48.658;2.328;2023-03-17T13:10:42;22.20;39.10
72576;DHT22;60613;48.658;2.328;2023-03-17T13:23:55;22.30;38.90
72576;DHT22;60613;48.658;2.328;2023-03-17T13:29:41;22.30;38.40
72576;DHT22;60613;48.658;2.328;2023-03-17T13:46:27;22.30;39.20
72576;DHT22;60613;48.658;2.328;2023-03-17T13:48:56;22.30;39.50
72576;DHT22;60613;48.658;2.328;2023-03-17T13:51:23;22.30;39.80
72576;DHT22;60613;48.658;2.328;2023-03-17T13:53:54;22.30;39.50
72576;DHT22;60613;48.658;2.328;2023-03-17T13:56:26;22.30;39.20
72576;DHT22;60613;48.658;2.328;2023-03-17T13:59:15;22.30;38.90
72576;DHT22;60613;48.658;2.328;2023-03-17T14:01:55;22.40;39.10
72576;DHT22;60613;48.658;2.328;2023-03-17T14:04:28;22.30;39.20
72576;DHT22;60613;48.658;2.328;2023-03-17T14:06:58;22.30;39.10
72576;DHT22;60613;48.658;2.328;2023-03-17T14:09:37;22.30;38.90
72576;DHT22;60613;48.658;2.328;2023-03-17T14:12:30;22.40;39.30
72576;DHT22;60613;48.658;2.328;2023-03-17T14:15:02;22.40;39.00
72576;DHT22;60613;48.658;2.328;2023-03-17T14:17:35;22.40;39.10
72576;DHT22;60613;48.658;2.328;2023-03-17T14:22:44;22.40;39.00
72576;DHT22;60613;48.658;2.328;2023-03-17T14:25:22;22.40;39.20
72576;DHT22;60613;48.658;2.328;2023-03-17T14:27:51;22.40;39.00
72576;DHT22;60613;48.658;2.328;2023-03-17T14:30:32;22.40;40.10
72576;DHT22;60613;48.658;2.328;2023-03-17T14:35:38;22.40;39.00
72576;DHT22;60613;48.658;2.328;2023-03-17T14:38:27;22.40;38.80
72576;DHT22;60613;48.658;2.328;2023-03-17T14:43:33;22.40;38.80
72576;DHT22;60613;48.658;2.328;2023-03-17T14:46:03;22.40;38.60
72576;DHT22;60613;48.658;2.328;2023-03-17T14:48:32;22.40;38.80
72576;DHT22;60613;48.658;2.328;2023-03-17T14:53:47;22.50;38.80
72576;DHT22;60613;48.658;2.328;2023-03-17T14:56:21;22.40;38.80
72576;DHT22;60613;48.658;2.328;2023-03-17T14:58:50;22.40;38.60
72576;DHT22;60613;48.658;2.328;2023-03-17T15:01:17;22.50;38.60
72576;DHT22;60613;48.658;2.328;2023-03-17T15:03:59;22.40;38.50
72576;DHT22;60613;48.658;2.328;2023-03-17T15:06:29;22.40;38.60
72576;DHT22;60613;48.658;2.328;2023-03-17T15:09:17;22.50;38.50
72576;DHT22;60613;48.658;2.328;2023-03-17T15:11:44;22.50;38.40
72576;DHT22;60613;48.658;2.328;2023-03-17T15:14:21;22.50;38.40
72576;DHT22;60613;48.658;2.328;2023-03-17T15:16:51;22.50;38.50
72576;DHT22;60613;48.658;2.328;2023-03-17T15:19:27;22.50;38.50
72576;DHT22;60613;48.658;2.328;2023-03-17T15:21:53;22.50;39.60
72576;DHT22;60613;48.658;2.328;2023-03-17T15:26:49;22.50;38.00
72576;DHT22;60613;48.658;2.328;2023-03-17T15:29:15;22.50;38.30
72576;DHT22;60613;48.658;2.328;2023-03-17T15:31:41;22.70;38.10
72576;DHT22;60613;48.658;2.328;2023-03-17T15:34:11;22.70;38.00
72576;DHT22;60613;48.658;2.328;2023-03-17T15:36:38;22.70;37.90
72576;DHT22;60613;48.658;2.328;2023-03-17T15:39:04;22.70;37.80
72576;DHT22;60613;48.658;2.328;2023-03-17T15:41:30;22.70;37.90
72576;DHT22;60613;48.658;2.328;2023-03-17T15:43:56;22.80;38.00
72576;DHT22;60613;48.658;2.328;2023-03-17T15:46:26;22.80;37.90
72576;DHT22;60613;48.658;2.328;2023-03-17T15:48:55;22.80;39.10
72576;DHT22;60613;48.658;2.328;2023-03-17T15:51:21;22.80;37.80
72576;DHT22;60613;48.658;2.328;2023-03-17T15:53:47;22.80;37.90
72576;DHT22;60613;48.658;2.328;2023-03-17T15:56:18;22.80;37.80
72576;DHT22;60613;48.658;2.328;2023-03-17T15:58:48;22.90;37.90
72576;DHT22;60613;48.658;2.328;2023-03-17T16:01:15;22.90;37.80
72576;DHT22;60613;48.658;2.328;2023-03-17T16:03:42;22.80;37.70
72576;DHT22;60613;48.658;2.328;2023-03-17T16:06:20;22.80;37.80
72576;DHT22;60613;48.658;2.328;2023-03-17T16:08:47;22.80;37.80
72576;DHT22;60613;48.658;2.328;2023-03-17T16:11:21;22.90;37.90
72576;DHT22;60613;48.658;2.328;2023-03-17T16:13:53;22.90;38.10
72576;DHT22;60613;48.658;2.328;2023-03-17T16:16:24;22.90;38.00
72576;DHT22;60613;48.658;2.328;2023-03-17T16:18:51;22.80;38.20
72576;DHT22;60613;48.658;2.328;2023-03-17T16:21:18;22.80;39.30
72576;DHT22;60613;48.658;2.328;2023-03-17T16:23:44;22.80;38.00
72576;DHT22;60613;48.658;2.328;2023-03-17T16:26:11;22.70;38.10
72576;DHT22;60613;48.658;2.328;2023-03-17T16:28:36;22.70;38.00
72576;DHT22;60613;48.658;2.328;2023-03-17T16:31:15;22.70;38.10
72576;DHT22;60613;48.658;2.328;2023-03-17T16:33:41;22.60;38.20
72576;DHT22;60613;48.658;2.328;2023-03-17T16:36:13;22.50;38.40
72576;DHT22;60613;48.658;2.328;2023-03-17T16:38:39;22.50;38.50
72576;DHT22;60613;48.658;2.328;2023-03-17T16:41:07;22.50;38.60
72576;DHT22;60613;48.658;2.328;2023-03-17T16:43:35;22.40;38.60
72576;DHT22;60613;48.658;2.328;2023-03-17T16:46:05;22.40;38.60
72576;DHT22;60613;48.658;2.328;2023-03-17T16:48:31;22.40;38.50
72576;DHT22;60613;48.658;2.328;2023-03-17T16:50:57;22.40;38.80
72576;DHT22;60613;48.658;2.328;2023-03-17T16:53:23;22.40;38.80
72576;DHT22;60613;48.658;2.328;2023-03-17T16:55:50;22.30;38.60
72576;DHT22;60613;48.658;2.328;2023-03-17T16:58:23;22.30;38.70
72576;DHT22;60613;48.658;2.328;2023-03-17T17:00:51;22.30;38.80
72576;DHT22;60613;48.658;2.328;2023-03-17T17:03:17;22.30;38.90
72576;DHT22;60613;48.658;2.328;2023-03-17T17:05:43;22.30;38.60
72576;DHT22;60613;48.658;2.328;2023-03-17T17:08:09;22.30;38.70
72576;DHT22;60613;48.658;2.328;2023-03-17T17:10:36;22.30;38.70
72576;DHT22;60613;48.658;2.328;2023-03-17T17:13:03;22.20;38.70
72576;DHT22;60613;48.658;2.328;2023-03-17T17:15:30;22.20;38.80
72576;DHT22;60613;48.658;2.328;2023-03-17T17:17:59;22.20;38.70
72576;DHT22;60613;48.658;2.328;2023-03-17T17:20:30;22.20;40.00
72576;DHT22;60613;48.658;2.328;2023-03-17T17:22:57;22.20;38.70
72576;DHT22;60613;48.658;2.328;2023-03-17T17:25:24;22.20;38.80
72576;DHT22;60613;48.658;2.328;2023-03-17T17:27:49;22.20;38.80
72576;DHT22;60613;48.658;2.328;2023-03-17T17:30:20;22.20;38.80
72576;DHT22;60613;48.658;2.328;2023-03-17T17:32:46;22.20;38.80
72576;DHT22;60613;48.658;2.328;2023-03-17T17:35:13;22.20;38.90
72576;DHT22;60613;48.658;2.328;2023-03-17T17:37:39;22.20;38.80
72576;DHT22;60613;48.658;2.328;2023-03-17T17:40:07;22.20;38.70
72576;DHT22;60613;48.658;2.328;2023-03-17T17:42:34;22.20;38.70
72576;DHT22;60613;48.658;2.328;2023-03-17T17:45:00;22.20;38.60
72576;DHT22;60613;48.658;2.328;2023-03-17T17:47:25;22.20;38.60
72576;DHT22;60613;48.658;2.328;2023-03-17T17:49:51;22.30;38.40
72576;DHT22;60613;48.658;2.328;2023-03-17T17:52:17;22.30;38.40
72576;DHT22;60613;48.658;2.328;2023-03-17T17:54:43;22.30;38.40
72576;DHT22;60613;48.658;2.328;2023-03-17T17:57:11;22.30;38.50
72576;DHT22;60613;48.658;2.328;2023-03-17T17:59:36;22.20;38.50
72576;DHT22;60613;48.658;2.328;2023-03-17T18:02:02;22.20;38.50
72576;DHT22;60613;48.658;2.328;2023-03-17T18:04:28;22.20;38.60
72576;DHT22;60613;48.658;2.328;2023-03-17T18:06:54;22.20;38.60
72576;DHT22;60613;48.658;2.328;2023-03-17T18:09:20;22.20;38.50
72576;DHT22;60613;48.658;2.328;2023-03-17T18:11:46;22.20;38.40
72576;DHT22;60613;48.658;2.328;2023-03-17T18:14:12;22.30;38.30
72576;DHT22;60613;48.658;2.328;2023-03-17T18:16:38;22.30;38.20
72576;DHT22;60613;48.658;2.328;2023-03-17T18:19:06;22.30;38.20
72576;DHT22;60613;48.658;2.328;2023-03-17T18:21:33;22.30;38.20
72576;DHT22;60613;48.658;2.328;2023-03-17T18:24:00;22.30;38.20
72576;DHT22;60613;48.658;2.328;2023-03-17T18:26:26;22.30;38.20
72576;DHT22;60613;48.658;2.328;2023-03-17T18:28:53;22.20;38.30
72576;DHT22;60613;48.658;2.328;2023-03-17T18:34:13;22.20;38.50
72576;DHT22;60613;48.658;2.328;2023-03-17T18:36:42;22.10;38.60
72576;DHT22;60613;48.658;2.328;2023-03-17T18:39:09;22.10;38.50
72576;DHT22;60613;48.658;2.328;2023-03-17T18:41:35;22.10;38.50
72576;DHT22;60613;48.658;2.328;2023-03-17T18:44:02;22.20;38.30
72576;DHT22;60613;48.658;2.328;2023-03-17T18:46:27;22.30;38.20
72576;DHT22;60613;48.658;2.328;2023-03-17T18:48:53;22.30;38.10
72576;DHT22;60613;48.658;2.328;2023-03-17T18:51:19;22.30;38.00
72576;DHT22;60613;48.658;2.328;2023-03-17T18:53:44;22.30;38.00
72576;DHT22;60613;48.658;2.328;2023-03-17T18:56:10;22.30;38.00
72576;DHT22;60613;48.658;2.328;2023-03-17T18:58:36;22.30;37.90
72576;DHT22;60613;48.658;2.328;2023-03-17T19:01:02;22.30;38.00
72576;DHT22;60613;48.658;2.328;2023-03-17T19:03:28;22.30;38.10
72576;DHT22;60613;48.658;2.328;2023-03-17T19:05:56;22.30;38.10
72576;DHT22;60613;48.658;2.328;2023-03-17T19:08:22;22.30;38.10
72576;DHT22;60613;48.658;2.328;2023-03-17T19:10:48;22.30;38.00
72576;DHT22;60613;48.658;2.328;2023-03-17T19:13:14;22.30;38.00
72576;DHT22;60613;48.658;2.328;2023-03-17T19:15:40;22.30;38.00
72576;DHT22;60613;48.658;2.328;2023-03-17T19:18:06;22.30;38.40
72576;DHT22;60613;48.658;2.328;2023-03-17T19:20:33;22.30;38.40
72576;DHT22;60613;48.658;2.328;2023-03-17T19:23:02;22.30;38.50
72576;DHT22;60613;48.658;2.328;2023-03-17T19:25:32;22.30;38.50
72576;DHT22;60613;48.658;2.328;2023-03-17T19:27:58;22.30;38.50
72576;DHT22;60613;48.658;2.328;2023-03-17T19:30:23;22.20;38.40
72576;DHT22;60613;48.658;2.328;2023-03-17T19:32:49;22.20;38.60
72576;DHT22;60613;48.658;2.328;2023-03-17T19:35:14;22.20;38.70
72576;DHT22;60613;48.658;2.328;2023-03-17T19:37:40;22.20;38.60
72576;DHT22;60613;48.658;2.328;2023-03-17T19:40:07;22.20;38.70
72576;DHT22;60613;48.658;2.328;2023-03-17T19:42:34;22.20;38.50
72576;DHT22;60613;48.658;2.328;2023-03-17T19:45:00;22.30;38.40
72576;DHT22;60613;48.658;2.328;2023-03-17T19:47:26;22.30;38.30
72576;DHT22;60613;48.658;2.328;2023-03-17T19:49:52;22.30;38.40
72576;DHT22;60613;48.658;2.328;2023-03-17T19:52:18;22.30;38.30
72576;DHT22;60613;48.658;2.328;2023-03-17T19:54:44;22.30;38.30
72576;DHT22;60613;48.658;2.328;2023-03-17T19:57:14;22.30;38.30
72576;DHT22;60613;48.658;2.328;2023-03-17T19:59:40;22.20;38.30
